Time;durP1;ratioP1;P1;durP2;ratioP2;P2;SDS_P1;SDS_P2;PMS_P1;PMS_P2;Temp;Humidity;BMP_temperature;BMP_pressure;BME280_temperature;BME280_humidity;BME280_pressure;Samples;Min_cycle;Max_cycle;Signal;HPM_P1;HPM_P2
2022/05/11 00:00:30;;;;;;;5.60;2.78;;;;;;;16.54;59.11;101240.44;4954244;28;20480;-89
2022/05/11 00:02:55;;;;;;;5.13;2.90;;;;;;;16.51;59.33;101235.44;4970977;28;20387;-89
2022/05/11 00:05:20;;;;;;;5.35;2.97;;;;;;;16.53;59.77;101240.59;4970351;28;20499;-89
2022/05/11 00:07:46;;;;;;;5.72;3.08;;;;;;;16.49;59.54;101236.56;4970183;28;20042;-89
2022/05/11 00:10:12;;;;;;;7.55;3.33;;;;;;;16.49;59.40;101228.59;4970231;28;20027;-89
2022/05/11 00:12:47;;;;;;;6.30;3.10;;;;;;;16.46;59.24;101235.03;4971147;28;20106;-89
2022/05/11 00:15:19;;;;;;;4.80;3.35;;;;;;;16.43;59.10;101221.19;4953038;28;20027;-89
2022/05/11 00:17:44;;;;;;;6.20;2.90;;;;;;;16.44;59.06;101221.03;4970049;28;20038;-89
2022/05/11 00:20:11;;;;;;;6.38;3.30;;;;;;;16.42;59.24;101222.16;4971261;28;20289;-89
2022/05/11 00:22:37;;;;;;;4.85;3.20;;;;;;;16.42;59.44;101216.84;4971910;28;20351;-89
2022/05/11 00:25:05;;;;;;;7.25;3.28;;;;;;;16.44;58.99;101214.91;4953692;28;20034;-89
2022/05/11 00:27:31;;;;;;;7.20;3.65;;;;;;;16.43;59.18;101213.22;4970667;28;20042;-89
2022/05/11 00:29:57;;;;;;;6.18;3.20;;;;;;;16.42;59.55;101211.53;4970977;28;20073;-89
2022/05/11 00:32:25;;;;;;;4.10;3.28;;;;;;;16.43;59.28;101205.25;4969862;28;20027;-89
2022/05/11 00:34:53;;;;;;;8.25;3.28;;;;;;;16.40;59.45;101197.53;4971393;28;20093;-89
2022/05/11 00:37:19;;;;;;;5.45;3.05;;;;;;;16.41;58.91;101205.41;4953067;28;20502;-89
2022/05/11 00:39:45;;;;;;;4.32;2.70;;;;;;;16.41;58.78;101200.09;4954175;28;20093;-89
2022/05/11 00:42:11;;;;;;;4.70;2.78;;;;;;;16.43;58.52;101200.78;4971232;28;20026;-89
2022/05/11 00:44:36;;;;;;;7.75;2.95;;;;;;;16.44;58.78;101193.66;4970961;28;20548;-89
2022/05/11 00:47:06;;;;;;;4.93;2.70;;;;;;;16.42;58.66;101191.13;4971092;28;20027;-89
2022/05/11 00:49:38;;;;;;;8.60;2.80;;;;;;;16.44;58.88;101188.34;4949820;28;20027;-89
2022/05/11 00:52:24;;;;;;;;;;;;;;;16.53;57.62;101187.47;4951483;29;20448;-89
2022/05/11 00:55:00;;;;;;;5.70;2.70;;;;;;;16.44;58.56;101185.69;4950526;29;20005;-89
2022/05/11 00:57:32;;;;;;;6.70;2.60;;;;;;;16.42;58.75;101180.50;4942607;29;20103;-88
2022/05/11 00:59:59;;;;;;;7.07;2.83;;;;;;;16.42;58.81;101179.66;4930953;29;20027;-89
2022/05/11 01:02:26;;;;;;;4.68;2.47;;;;;;;16.43;59.00;101181.34;4932078;29;20028;-89
2022/05/11 01:04:56;;;;;;;5.63;2.70;;;;;;;16.40;58.85;101176.28;4931390;29;20035;-89
2022/05/11 01:07:22;;;;;;;5.78;2.80;;;;;;;16.39;58.92;101174.63;4912319;29;20043;-89
2022/05/11 01:09:47;;;;;;;5.45;2.65;;;;;;;16.40;59.33;101170.97;4913175;29;20036;-89
2022/05/11 01:12:17;;;;;;;5.78;2.75;;;;;;;16.38;59.33;101168.47;4912922;29;20047;-89
2022/05/11 01:14:50;;;;;;;5.88;2.70;;;;;;;16.38;59.17;101168.47;4913808;29;20032;-89
2022/05/11 01:17:16;;;;;;;5.05;2.40;;;;;;;16.37;59.44;101166.78;4928036;29;20028;-89
2022/05/11 01:19:45;;;;;;;7.95;2.65;;;;;;;16.36;59.41;101156.31;4895812;29;20548;-89
2022/05/11 01:22:22;;;;;;;4.00;2.47;;;;;;;16.37;58.98;101152.69;4915445;29;20031;-89
2022/05/11 01:24:48;;;;;;;3.42;2.20;;;;;;;16.36;60.25;101158.97;4931676;29;20020;-89
2022/05/11 01:27:35;;;;;;;3.85;2.05;;;;;;;16.38;59.71;101157.00;4930511;29;20028;-88
2022/05/11 01:30:24;;;;;;;5.40;2.90;;;;;;;16.32;60.92;101149.63;4931263;29;20032;-89
2022/05/11 01:32:52;;;;;;;4.80;2.40;;;;;;;16.29;60.95;101161.38;4916790;29;20513;-89
2022/05/11 01:35:33;;;;;;;4.85;2.38;;;;;;;16.25;60.98;101157.31;4931244;29;20038;-88
2022/05/11 01:38:08;;;;;;;4.10;2.08;;;;;;;16.23;61.47;101156.63;4914079;29;20028;-88
2022/05/11 01:40:33;;;;;;;3.85;2.15;;;;;;;16.22;62.79;101163.75;4930867;29;20055;-89
2022/05/11 01:42:58;;;;;;;5.80;2.00;;;;;;;16.17;63.04;101150.06;4930243;29;20212;-89
2022/05/11 01:45:24;;;;;;;3.47;2.20;;;;;;;16.15;62.04;101162.66;4931380;29;20481;-89
2022/05/11 01:47:53;;;;;;;5.65;2.35;;;;;;;16.12;62.78;101152.31;4930177;29;20031;-88
2022/05/11 01:50:19;;;;;;;3.70;2.20;;;;;;;16.11;62.42;101150.66;4930778;29;20024;-89
2022/05/11 01:52:44;;;;;;;3.58;2.05;;;;;;;16.12;62.00;101147.00;4930712;29;20033;-89
2022/05/11 01:55:09;;;;;;;4.25;2.58;;;;;;;16.10;61.50;101148.97;4912794;29;20380;-89
2022/05/11 01:57:35;;;;;;;4.20;2.15;;;;;;;16.10;61.38;101148.97;4936444;29;20130;-89
2022/05/11 02:00:00;;;;;;;2.72;2.30;;;;;;;16.10;61.23;101143.66;4947781;29;20090;-89
2022/05/11 02:02:26;;;;;;;4.70;2.28;;;;;;;16.11;61.13;101145.34;4947441;28;20031;-88
2022/05/11 02:07:50;;;;;;;5.43;2.33;;;;;;;16.09;61.39;101147.28;4949124;29;20042;-88
2022/05/11 02:10:22;;;;;;;2.55;2.35;;;;;;;16.08;61.73;101140.31;4964090;28;20023;-89
2022/05/11 02:12:47;;;;;;;3.25;2.03;;;;;;;16.08;61.36;101142.97;4949823;28;20034;-89
2022/05/11 02:15:14;;;;;;;4.10;2.05;;;;;;;16.08;61.38;101135.00;4949541;28;20023;-89
2022/05/11 02:17:41;;;;;;;3.75;2.28;;;;;;;16.08;61.18;101134.16;4949933;28;20391;-89
2022/05/11 02:20:07;;;;;;;2.83;2.10;;;;;;;16.08;61.42;101132.34;4950152;28;20443;-89
2022/05/11 02:22:33;;;;;;;6.38;2.45;;;;;;;16.08;60.79;101135.00;4949447;28;20039;-88
2022/05/11 02:24:58;;;;;;;4.20;2.40;;;;;;;16.09;60.88;101136.69;4948804;29;20028;-89
2022/05/11 02:27:23;;;;;;;3.53;2.30;;;;;;;16.08;61.06;101137.66;4947952;29;20488;-89
2022/05/11 02:29:49;;;;;;;6.18;2.50;;;;;;;16.07;60.98;101133.31;4948934;28;20035;-89
2022/05/11 02:32:14;;;;;;;3.63;2.20;;;;;;;16.08;61.09;101135.00;4931645;29;20027;-89
2022/05/11 02:37:23;;;;;;;4.25;2.50;;;;;;;16.07;60.92;101128.03;4949106;28;20038;-89
2022/05/11 02:39:49;;;;;;;6.35;2.38;;;;;;;16.08;60.89;101129.69;4949707;28;20031;-89
2022/05/11 02:42:17;;;;;;;4.82;2.60;;;;;;;16.05;61.19;101124.66;4932542;29;20035;-89
2022/05/11 02:44:42;;;;;;;5.38;2.40;;;;;;;16.05;60.98;101129.97;4949058;29;20411;-89
2022/05/11 02:47:08;;;;;;;4.68;2.10;;;;;;;16.06;61.21;101130.81;4948119;28;20034;-88
2022/05/11 02:49:33;;;;;;;4.80;2.03;;;;;;;16.07;61.14;101125.38;4931150;29;20665;-89
2022/05/11 02:51:58;;;;;;;2.63;2.03;;;;;;;16.08;61.39;101129.69;4949165;29;20339;-89
2022/05/11 02:54:24;;;;;;;3.60;2.28;;;;;;;16.07;61.29;101128.03;4948826;28;20476;-89
2022/05/11 02:56:49;;;;;;;4.10;2.40;;;;;;;16.06;61.28;101130.81;4948692;28;20074;-89
2022/05/11 02:59:15;;;;;;;3.95;2.30;;;;;;;16.06;61.21;101126.34;4930803;29;20039;-89
2022/05/11 03:01:40;;;;;;;5.95;2.38;;;;;;;16.06;60.98;101123.69;4949362;29;20082;-88
2022/05/11 03:04:05;;;;;;;6.97;2.10;;;;;;;16.05;61.32;101137.94;4947535;28;20210;-88
2022/05/11 03:06:31;;;;;;;4.20;2.50;;;;;;;16.02;62.55;101130.25;4931179;29;20086;-89
2022/05/11 03:08:56;;;;;;;6.82;2.60;;;;;;;16.04;61.42;101116.84;4948421;29;20392;-89
2022/05/11 03:11:21;;;;;;;4.93;2.20;;;;;;;16.01;61.52;101117.09;4949458;29;20438;-89
2022/05/11 03:13:47;;;;;;;7.30;2.28;;;;;;;16.03;61.33;101109.88;4948260;29;20113;-89
2022/05/11 03:16:12;;;;;;;3.88;2.10;;;;;;;15.99;61.52;101104.81;4932163;29;20459;-89
2022/05/11 03:18:37;;;;;;;4.53;2.22;;;;;;;16.00;61.76;101103.00;4932749;29;20059;-89
2022/05/11 03:21:06;;;;;;;7.00;2.30;;;;;;;16.00;61.52;101100.34;4947964;29;20039;-88
2022/05/11 03:23:31;;;;;;;4.90;2.25;;;;;;;15.98;61.35;101107.63;4932473;29;20439;-89
2022/05/11 03:25:56;;;;;;;2.83;2.05;;;;;;;15.97;61.72;101100.63;4948688;29;20074;-89
2022/05/11 03:28:22;;;;;;;4.05;1.80;;;;;;;15.95;61.68;101097.28;4949354;29;20035;-89
2022/05/11 03:30:47;;;;;;;6.18;2.20;;;;;;;15.94;61.94;101098.25;4932301;29;20032;-89
2022/05/11 03:35:56;;;;;;;5.65;2.65;;;;;;;15.91;61.96;101095.91;4949738;29;20122;-89
2022/05/11 03:38:21;;;;;;;2.50;2.30;;;;;;;15.88;62.23;101096.19;4946324;29;20126;-89
2022/05/11 03:40:47;;;;;;;3.58;2.38;;;;;;;15.88;62.07;101091.72;4948186;29;20023;-89
2022/05/11 03:43:12;;;;;;;3.85;2.50;;;;;;;15.89;62.16;101093.38;4949595;29;20035;-88
2022/05/11 03:45:37;;;;;;;3.70;2.60;;;;;;;15.87;62.41;101083.88;4932184;29;20023;-89
2022/05/11 03:48:03;;;;;;;4.38;2.03;;;;;;;15.85;62.27;101084.03;4948836;29;20035;-89
2022/05/11 03:50:29;;;;;;;5.70;2.20;;;;;;;15.84;63.01;101084.19;4932157;29;20027;-88
2022/05/11 03:52:56;;;;;;;4.18;2.65;;;;;;;15.83;62.38;101078.03;4949237;29;20105;-89
2022/05/11 03:55:23;;;;;;;3.17;2.45;;;;;;;15.80;62.72;101077.47;4946753;29;20031;-89
2022/05/11 03:57:49;;;;;;;5.10;2.50;;;;;;;15.76;63.15;101082.25;4948661;29;20047;-88
2022/05/11 04:00:21;;;;;;;3.75;2.33;;;;;;;15.75;63.25;101080.56;4948442;29;20039;-89
2022/05/11 04:02:48;;;;;;;2.70;2.03;;;;;;;15.76;63.03;101084.06;4948707;28;20469;-89
2022/05/11 04:05:14;;;;;;;6.07;2.05;;;;;;;15.72;63.44;101085.31;4930002;29;20436;-90
2022/05/11 04:07:41;;;;;;;3.95;2.38;;;;;;;15.70;63.25;101088.09;4947678;28;20336;-89
2022/05/11 04:10:08;;;;;;;2.75;2.38;;;;;;;15.67;64.04;101088.41;4947046;28;20820;-89
2022/05/11 04:12:34;;;;;;;4.82;2.55;;;;;;;15.67;63.77;101077.78;4930379;29;20519;-89
2022/05/11 04:15:00;;;;;;;4.10;2.08;;;;;;;15.63;63.59;101077.22;4948541;29;20371;-89
2022/05/11 04:17:25;;;;;;;5.18;2.30;;;;;;;15.59;63.67;101080.28;4948586;29;20068;-89
2022/05/11 04:19:50;;;;;;;4.70;2.50;;;;;;;15.57;63.72;101076.88;4948748;29;20037;-89
2022/05/11 04:22:19;;;;;;;3.70;2.20;;;;;;;15.53;63.90;101070.19;4930350;29;20027;-89
2022/05/11 04:24:44;;;;;;;3.60;2.28;;;;;;;15.48;63.89;101073.28;4947674;29;20027;-89
2022/05/11 04:27:10;;;;;;;4.97;2.20;;;;;;;15.45;64.52;101073.56;4930002;29;20484;-89
2022/05/11 04:29:37;;;;;;;4.97;2.30;;;;;;;15.44;64.73;101074.53;4946201;29;20038;-89
2022/05/11 04:32:02;;;;;;;5.70;2.60;;;;;;;15.45;63.99;101083.31;4948896;29;20093;-89
2022/05/11 04:34:28;;;;;;;3.95;2.30;;;;;;;15.42;64.64;101073.00;4963150;28;20428;-89
2022/05/11 04:36:53;;;;;;;4.78;2.28;;;;;;;15.42;64.55;101073.00;4948439;29;20027;-90
2022/05/11 04:39:19;;;;;;;3.42;2.00;;;;;;;15.42;64.51;101068.53;4944706;28;20114;-89
2022/05/11 04:41:44;;;;;;;6.50;2.50;;;;;;;15.38;65.14;101072.44;4933207;29;20392;-89
2022/05/11 04:44:09;;;;;;;2.83;2.17;;;;;;;15.32;65.13;101073.00;4938904;29;20110;-90
2022/05/11 04:46:36;;;;;;;6.53;2.60;;;;;;;15.28;65.47;101076.91;4923524;29;22025;-90
2022/05/11 04:49:19;;;;;;;4.00;2.42;;;;;;;15.26;65.33;101069.09;4915697;29;20082;-89
2022/05/11 04:51:47;;;;;;;3.45;2.55;;;;;;;15.27;65.05;101080.53;4915524;29;20031;-89
2022/05/11 04:54:12;;;;;;;4.80;2.67;;;;;;;15.29;65.45;101074.13;4915677;29;20028;-89
2022/05/11 04:56:38;;;;;;;3.38;2.72;;;;;;;15.32;65.47;101075.66;4932576;29;20046;-89
2022/05/11 04:59:08;;;;;;;6.22;2.75;;;;;;;15.32;65.75;101071.19;4930192;29;20517;-89
2022/05/11 05:01:34;;;;;;;5.18;2.58;;;;;;;15.36;65.36;101069.09;4915112;29;20475;-89
2022/05/11 05:03:59;;;;;;;3.95;2.50;;;;;;;15.38;65.37;101071.59;4914960;29;20042;-89
2022/05/11 05:06:25;;;;;;;5.88;2.78;;;;;;;15.39;65.32;101074.13;4942723;29;20039;-88
2022/05/11 05:08:53;;;;;;;4.78;2.83;;;;;;;15.44;65.37;101079.00;4920110;29;20032;-91
2022/05/11 05:11:18;;;;;;;3.15;2.45;;;;;;;15.49;65.55;101080.25;4931203;29;20122;-89
2022/05/11 05:13:43;;;;;;;2.95;2.47;;;;;;;15.56;65.22;101080.53;4932271;29;20046;-90
2022/05/11 05:16:09;;;;;;;5.18;2.40;;;;;;;15.59;64.86;101077.63;4930015;29;20047;-89
2022/05/11 05:18:35;;;;;;;10.05;2.70;;;;;;;15.62;65.10;101080.84;4930021;29;20099;-89
2022/05/11 05:21:00;;;;;;;6.53;2.63;;;;;;;15.65;64.91;101079.75;4930181;29;20040;-89
2022/05/11 05:23:26;;;;;;;6.90;3.05;;;;;;;15.64;65.02;101084.22;4930542;29;20039;-90
2022/05/11 05:25:51;;;;;;;5.43;2.85;;;;;;;15.68;64.75;101089.22;4913182;29;20015;-89
2022/05/11 05:31:10;;;;;;;8.40;3.08;;;;;;;15.75;64.83;101090.34;4931111;29;20035;-89
2022/05/11 05:33:40;;;;;;;6.20;3.15;;;;;;;15.75;64.89;101098.28;4930830;29;20031;-89
2022/05/11 05:36:06;;;;;;;8.18;3.22;;;;;;;15.77;64.68;101094.53;4914145;29;20019;-89
2022/05/11 05:38:32;;;;;;;9.10;3.20;;;;;;;15.80;64.44;101091.59;4914274;29;20028;-90
2022/05/11 05:40:58;;;;;;;6.82;3.33;;;;;;;15.82;64.74;101091.44;4913177;29;20107;-89
2022/05/11 05:43:24;;;;;;;5.00;3.55;;;;;;;15.85;64.51;101092.00;4920621;29;20572;-89
2022/05/11 05:45:51;;;;;;;3.88;2.95;;;;;;;15.88;64.21;101088.22;4924463;29;20499;-89
2022/05/11 05:48:22;;;;;;;4.68;2.92;;;;;;;15.90;63.87;101099.53;4920465;29;20106;-89
2022/05/11 05:50:47;;;;;;;5.25;2.90;;;;;;;15.92;64.21;101093.09;4928644;29;20148;-91
2022/05/11 05:53:14;;;;;;;5.57;2.60;;;;;;;15.95;63.55;101094.63;4929152;29;20114;-89
2022/05/11 05:55:41;;;;;;;4.97;2.92;;;;;;;15.96;63.93;101098.97;4929714;29;20079;-89
2022/05/11 05:58:06;;;;;;;8.15;2.72;;;;;;;15.98;63.86;101097.00;4926644;29;20284;-89
2022/05/11 06:00:32;;;;;;;4.22;2.60;;;;;;;16.02;63.54;101102.88;4911721;29;20024;-89
2022/05/11 06:02:57;;;;;;;4.28;2.40;;;;;;;16.05;62.98;101097.28;4929317;29;20036;-89
2022/05/11 06:05:23;;;;;;;4.57;2.50;;;;;;;16.07;63.44;101104.13;4913880;29;20058;-89
2022/05/11 06:07:48;;;;;;;5.90;2.35;;;;;;;16.10;62.85;101098.53;4912819;29;20031;-89
2022/05/11 06:10:14;;;;;;;4.82;2.03;;;;;;;16.13;61.90;101100.91;4914205;29;20047;-88
2022/05/11 06:12:41;;;;;;;5.13;2.15;;;;;;;16.15;62.12;101100.75;4903657;29;20035;-89
2022/05/11 06:15:07;;;;;;;3.47;1.77;;;;;;;16.19;61.25;101102.13;4929734;29;20095;-89
2022/05/11 06:17:35;;;;;;;3.10;1.85;;;;;;;16.18;61.07;101101.31;4930485;29;20028;-89
2022/05/11 06:20:00;;;;;;;5.20;1.63;;;;;;;16.21;61.32;101098.34;4930393;29;20392;-89
2022/05/11 06:22:26;;;;;;;6.18;2.00;;;;;;;16.24;59.71;101098.06;4930327;29;20039;-88
2022/05/11 06:24:51;;;;;;;6.18;2.40;;;;;;;16.26;59.76;101085.47;4910683;29;20510;-89
2022/05/11 06:27:19;;;;;;;4.68;1.60;;;;;;;16.34;59.53;101094.53;4927035;29;20027;-88
2022/05/11 06:29:51;;;;;;;6.82;2.15;;;;;;;16.39;58.78;101094.94;4911301;29;20233;-88
2022/05/11 06:32:19;;;;;;;3.92;2.00;;;;;;;16.41;59.78;101085.00;4926337;29;20020;-88
2022/05/11 06:34:44;;;;;;;3.40;1.85;;;;;;;16.47;58.36;101087.09;4894010;29;20106;-88
2022/05/11 06:37:10;;;;;;;3.70;1.63;;;;;;;16.52;58.90;101084.84;4892365;29;20596;-89
2022/05/11 06:39:36;;;;;;;6.90;1.85;;;;;;;16.59;59.12;101085.94;4928547;29;20384;-89
2022/05/11 06:42:02;;;;;;;5.25;2.00;;;;;;;16.68;58.96;101081.59;4908867;29;20035;-89
2022/05/11 06:44:27;;;;;;;4.65;1.98;;;;;;;16.80;59.26;101083.88;4912054;29;20111;-90
2022/05/11 06:46:53;;;;;;;5.90;1.60;;;;;;;16.89;58.89;101072.41;4929272;29;20176;-89
2022/05/11 06:49:19;;;;;;;4.38;2.10;;;;;;;17.01;57.68;101075.66;4928472;29;20035;-89
2022/05/11 06:51:44;;;;;;;5.40;2.13;;;;;;;17.13;56.46;101074.47;4912922;29;20071;-88
2022/05/11 06:59:38;;;;;;;9.82;2.20;;;;;;;17.71;54.93;101065.25;4929986;29;20058;-88
2022/05/11 07:02:05;;;;;;;7.15;2.17;;;;;;;17.98;54.91;101078.41;4929158;29;20043;-88
2022/05/11 07:04:33;;;;;;;6.32;2.17;;;;;;;18.31;54.71;101076.78;4929235;29;20035;-89
2022/05/11 07:07:00;;;;;;;6.80;2.58;;;;;;;18.56;53.39;101068.94;4928617;29;20071;-88
2022/05/11 07:09:27;;;;;;;5.07;2.13;;;;;;;18.81;52.75;101069.88;4929465;29;20260;-88
2022/05/11 07:14:37;;;;;;;4.57;1.90;;;;;;;19.30;51.37;101058.34;4928840;29;20050;-88
2022/05/11 07:17:04;;;;;;;7.82;2.00;;;;;;;19.61;50.70;101077.25;4929402;29;20031;-88
2022/05/11 07:19:29;;;;;;;5.90;1.80;;;;;;;19.84;50.33;101072.06;4927408;29;20471;-89
2022/05/11 07:21:54;;;;;;;6.95;2.10;;;;;;;19.95;49.60;101074.38;4927902;29;20062;-88
2022/05/11 07:24:20;;;;;;;5.50;2.13;;;;;;;20.21;48.44;101073.34;4929678;29;20034;-88
2022/05/11 07:26:46;;;;;;;5.10;2.08;;;;;;;20.43;47.33;101070.00;4910538;29;20034;-89
2022/05/11 07:29:12;;;;;;;3.85;2.22;;;;;;;20.50;47.13;101079.00;4929412;29;20059;-89
2022/05/11 07:31:37;;;;;;;5.38;1.98;;;;;;;20.38;47.02;101074.97;4929902;29;20444;-89
2022/05/11 07:34:04;;;;;;;4.60;1.85;;;;;;;20.47;46.84;101074.00;4927862;29;20038;-88
2022/05/11 07:36:29;;;;;;;3.63;1.90;;;;;;;20.49;47.44;101074.66;4929706;29;20083;-88
2022/05/11 07:38:55;;;;;;;5.72;1.88;;;;;;;20.82;45.55;101077.19;4929356;29;20035;-89
2022/05/11 07:41:20;;;;;;;6.45;1.65;;;;;;;20.74;44.19;101070.03;4927511;29;20487;-88
2022/05/11 07:43:45;;;;;;;5.75;1.88;;;;;;;20.73;44.50;101070.19;4929552;29;20031;-89
2022/05/11 07:46:11;;;;;;;7.80;1.70;;;;;;;20.63;45.21;101065.91;4928413;29;20123;-88
2022/05/11 07:48:37;;;;;;;6.97;1.90;;;;;;;20.80;43.82;101073.84;4930715;29;20035;-89
2022/05/11 07:51:06;;;;;;;4.70;1.60;;;;;;;20.92;44.08;101077.81;4912837;29;20019;-89
2022/05/11 07:53:32;;;;;;;7.53;2.15;;;;;;;20.84;43.22;101075.19;4912526;29;20440;-88
2022/05/11 08:01:26;;;;;;;8.68;2.10;;;;;;;21.31;44.20;101071.59;4934603;29;20050;-89
2022/05/11 08:03:51;;;;;;;3.50;1.73;;;;;;;21.57;43.21;101074.72;4927776;29;20027;-89
2022/05/11 08:06:18;;;;;;;5.38;1.88;;;;;;;21.44;42.62;101077.19;4914160;29;20032;-89
2022/05/11 08:08:44;;;;;;;7.18;1.98;;;;;;;21.47;44.12;101082.16;4906561;29;20146;-89
2022/05/11 08:11:09;;;;;;;6.63;1.90;;;;;;;21.61;43.88;101076.03;4909198;29;20025;-89
2022/05/11 08:13:35;;;;;;;4.30;1.90;;;;;;;21.51;42.93;101075.44;4908716;29;20035;-89
2022/05/11 08:16:00;;;;;;;5.70;2.00;;;;;;;21.31;44.21;101074.28;4908031;29;20165;-89
2022/05/11 08:18:26;;;;;;;5.82;2.03;;;;;;;21.05;43.71;101074.56;4909021;29;20035;-88
2022/05/11 08:20:51;;;;;;;6.72;1.80;;;;;;;21.18;43.92;101067.59;4925179;29;20084;-89
2022/05/11 08:23:16;;;;;;;6.63;1.73;;;;;;;21.76;43.63;101076.09;4931206;29;20147;-89
2022/05/11 08:25:44;;;;;;;5.80;1.60;;;;;;;22.20;41.64;101068.16;4932250;29;20034;-88
2022/05/11 08:28:12;;;;;;;5.82;1.80;;;;;;;22.20;40.54;101068.16;4932268;29;20396;-88
2022/05/11 08:33:28;;;;;;;9.98;2.22;;;;;;;22.27;40.69;101069.09;4930913;29;20046;-89
2022/05/11 08:35:57;;;;;;;9.80;2.20;;;;;;;21.96;40.51;101063.00;4931608;29;20095;-88
2022/05/11 08:38:25;;;;;;;9.77;2.35;;;;;;;22.27;41.44;101058.34;4933067;29;20138;-89
2022/05/11 08:41:19;;;;;;;4.20;1.92;;;;;;;22.78;41.35;101055.72;4932179;29;20024;-89
2022/05/11 08:43:45;;;;;;;6.40;1.83;;;;;;;23.07;39.53;101065.59;4930326;29;20027;-89
2022/05/11 08:46:15;;;;;;;6.60;2.22;;;;;;;23.30;39.65;101057.38;4919509;29;20096;-88
2022/05/11 08:49:00;;;;;;;7.07;2.25;;;;;;;23.55;39.69;101063.19;4895686;29;20028;-89
2022/05/11 08:51:48;;;;;;;8.20;2.05;;;;;;;23.68;39.77;101064.19;4895203;29;20020;-89
2022/05/11 08:54:56;;;;;;;8.45;2.72;;;;;;;23.68;39.73;101060.66;4912948;29;20046;-89
2022/05/11 08:57:25;;;;;;;5.82;2.47;;;;;;;23.57;38.30;101064.69;4910422;29;20119;-88
2022/05/11 09:00:15;;;;;;;5.90;2.40;;;;;;;23.62;39.76;101062.28;4930467;29;20035;-90
2022/05/11 09:02:41;;;;;;;6.25;2.42;;;;;;;23.67;38.13;101054.47;4920776;29;20127;-89
2022/05/11 09:05:06;;;;;;;5.90;2.13;;;;;;;23.75;38.84;101053.47;4930915;29;20114;-89
2022/05/11 09:07:37;;;;;;;7.57;2.30;;;;;;;23.87;38.60;101048.38;4929370;29;20382;-89
2022/05/11 09:10:04;;;;;;;7.00;2.75;;;;;;;23.82;38.53;101045.47;4914182;29;20016;-89
2022/05/11 09:12:30;;;;;;;5.47;2.28;;;;;;;23.76;38.17;101044.41;4930815;29;20036;-89
2022/05/11 09:14:59;;;;;;;8.00;2.50;;;;;;;23.63;37.99;101044.28;4932623;29;20032;-90
2022/05/11 09:17:30;;;;;;;7.43;2.63;;;;;;;23.50;38.05;101036.91;4930331;29;20059;-90
2022/05/11 09:20:11;;;;;;;9.77;2.60;;;;;;;23.16;39.15;101051.03;4914083;29;20139;-89
2022/05/11 09:22:39;;;;;;;12.35;2.88;;;;;;;23.17;39.55;101033.06;4931021;29;20317;-89
2022/05/11 09:25:17;;;;;;;11.52;2.45;;;;;;;23.34;40.28;101037.19;4915202;29;20024;-89
2022/05/11 09:27:43;;;;;;;6.40;2.17;;;;;;;23.48;39.37;101036.25;4931526;29;20039;-89
2022/05/11 09:30:27;;;;;;;6.40;2.40;;;;;;;23.72;39.84;101038.56;4930486;29;20491;-89
2022/05/11 09:33:12;;;;;;;5.50;2.15;;;;;;;23.61;40.03;101031.03;4928815;29;20038;-89
2022/05/11 09:35:38;;;;;;;5.65;2.55;;;;;;;23.11;40.19;101030.13;4932207;29;20036;-90
2022/05/11 09:38:10;;;;;;;6.55;2.78;;;;;;;22.86;40.11;101039.56;4932645;29;20366;-89
2022/05/11 09:40:53;;;;;;;11.07;2.28;;;;;;;22.86;40.86;101034.19;4931842;29;20380;-89
2022/05/11 09:43:53;;;;;;;6.43;2.13;;;;;;;22.84;40.90;101038.09;4915190;29;20023;-90
2022/05/11 09:46:31;;;;;;;6.03;2.35;;;;;;;22.66;41.15;101025.03;4914486;29;20057;-90
2022/05/11 09:48:58;;;;;;;8.82;2.60;;;;;;;22.89;40.45;101027.63;4932208;29;20397;-90
2022/05/11 09:51:25;;;;;;;7.63;2.15;;;;;;;23.16;41.31;101023.34;4931110;29;20618;-91
2022/05/11 09:53:53;;;;;;;11.27;2.40;;;;;;;23.15;40.67;101025.19;4930632;29;20059;-93
2022/05/11 09:56:31;;;;;;;8.85;2.55;;;;;;;23.31;40.91;101024.13;4928769;29;20054;-90
2022/05/11 09:59:19;;;;;;;11.70;2.72;;;;;;;23.52;40.83;101025.97;4930775;29;20067;-89
2022/05/11 10:01:51;;;;;;;4.55;2.38;;;;;;;23.71;39.40;101019.97;4911989;29;20106;-89
2022/05/11 10:04:28;;;;;;;6.07;2.13;;;;;;;23.75;39.81;101021.22;4913250;29;20024;-89
2022/05/11 10:06:55;;;;;;;6.85;2.38;;;;;;;23.88;39.23;101029.38;4911814;29;20028;-89
2022/05/11 10:09:29;;;;;;;4.88;2.35;;;;;;;24.08;38.81;101021.47;4912094;29;20024;-90
2022/05/11 10:11:56;;;;;;;5.07;2.65;;;;;;;24.26;39.28;101018.25;4911554;29;20024;-90
2022/05/11 10:23:20;;;;;;;7.90;2.70;;;;;;;24.75;38.07;101017.25;4919816;29;20354;-90
2022/05/11 10:26:00;;;;;;;7.43;2.53;;;;;;;24.66;38.24;101003.97;4902654;29;20032;-89
2022/05/11 10:28:41;;;;;;;6.03;2.38;;;;;;;24.83;39.05;100999.06;4924103;29;20568;-89
2022/05/11 10:31:19;;;;;;;5.90;2.60;;;;;;;24.89;38.61;101002.81;4928741;29;20024;-90
2022/05/11 10:33:57;;;;;;;6.30;2.40;;;;;;;24.81;38.38;100990.34;4909600;29;20031;-89
2022/05/11 10:36:34;;;;;;;4.55;2.08;;;;;;;24.74;38.54;100988.66;4920863;29;20032;-90
2022/05/11 10:39:08;;;;;;;7.68;2.67;;;;;;;24.89;38.13;100987.50;4921074;29;20773;-90
2022/05/11 10:41:50;;;;;;;5.85;2.20;;;;;;;24.86;37.20;100984.38;4904560;29;20028;-90
2022/05/11 10:44:37;;;;;;;7.85;2.40;;;;;;;24.94;37.29;100990.41;4904717;29;20024;-89
2022/05/11 10:47:24;;;;;;;6.70;2.53;;;;;;;25.17;38.12;100981.13;4923937;29;20023;-90
2022/05/11 10:50:06;;;;;;;8.10;2.72;;;;;;;24.99;37.56;100976.34;4922456;29;20468;-91
2022/05/11 10:52:31;;;;;;;8.30;3.30;;;;;;;24.97;37.47;100976.53;4913542;29;20053;-91
2022/05/11 10:55:17;;;;;;;11.40;3.03;;;;;;;25.11;38.13;100977.38;4930489;29;20488;-90
2022/05/11 10:58:05;;;;;;;7.80;2.80;;;;;;;25.21;38.06;100968.91;4927850;29;20076;-91
2022/05/11 11:00:32;;;;;;;7.72;2.20;;;;;;;25.25;36.85;100971.00;4931015;29;20039;-91
2022/05/11 11:03:35;;;;;;;7.38;2.45;;;;;;;25.29;36.99;100972.25;4927722;29;20061;-90
2022/05/11 11:09:01;;;;;;;;;;;;;;;25.53;37.75;100960.00;4929992;29;20210;-91
2022/05/11 11:11:29;;;;;;;;;;;;;;;25.63;37.84;100961.44;4928839;29;20275;-91
2022/05/11 11:14:00;;;;;;;6.72;2.60;;;;;;;25.40;36.00;100962.69;4912828;29;19910;-90
2022/05/11 11:16:35;;;;;;;4.38;2.30;;;;;;;25.06;36.68;100970.97;4930355;29;20224;-90
2022/05/11 11:19:05;;;;;;;8.48;2.75;;;;;;;24.92;36.63;100960.16;4929137;29;20035;-90
2022/05/11 11:21:32;;;;;;;6.25;2.20;;;;;;;24.91;37.56;100953.13;4931352;29;20039;-90
2022/05/11 11:24:11;;;;;;;7.97;2.88;;;;;;;25.01;37.12;100954.59;4912670;29;20042;-90
2022/05/11 11:26:54;;;;;;;7.82;2.10;;;;;;;25.17;37.36;100954.19;4929388;29;20468;-90
2022/05/11 11:29:35;;;;;;;5.22;2.05;;;;;;;25.33;37.22;100948.41;4913165;29;20024;-90
2022/05/11 11:32:11;;;;;;;4.07;2.03;;;;;;;25.09;35.60;100959.78;4912379;29;20073;-90
2022/05/11 11:34:43;;;;;;;7.28;2.22;;;;;;;25.16;35.26;100955.22;4929399;29;20046;-90
2022/05/11 11:37:27;;;;;;;6.22;2.58;;;;;;;25.31;36.06;100950.47;4928700;29;20062;-90
2022/05/11 11:40:12;;;;;;;4.10;2.40;;;;;;;25.46;35.21;100939.47;4928181;29;20024;-90
2022/05/11 11:42:43;;;;;;;6.97;2.17;;;;;;;25.40;34.08;100938.44;4929888;29;20023;-89
2022/05/11 11:45:31;;;;;;;6.18;2.03;;;;;;;25.47;34.64;100936.56;4921958;29;20094;-89
2022/05/11 11:48:18;;;;;;;8.95;2.15;;;;;;;25.54;35.85;100937.38;4929848;29;20070;-89
2022/05/11 11:50:51;;;;;;;6.88;2.58;;;;;;;25.57;35.37;100930.75;4929840;29;20023;-90
2022/05/11 11:53:52;;;;;;;5.10;2.15;;;;;;;25.90;35.46;100928.84;4911836;29;20035;-90
2022/05/11 11:56:23;;;;;;;6.47;2.20;;;;;;;25.92;35.69;100934.84;4932019;29;20035;-91
2022/05/11 11:59:06;;;;;;;7.57;1.90;;;;;;;25.85;35.73;100930.53;4928211;29;20052;-90
2022/05/11 12:01:35;;;;;;;6.78;2.00;;;;;;;25.81;34.44;100921.22;4929417;29;20047;-90
2022/05/11 12:04:07;;;;;;;5.13;1.95;;;;;;;25.75;34.21;100916.66;4932301;29;20349;-90
2022/05/11 12:15:03;;;;;;;6.40;1.95;;;;;;;25.89;34.09;100905.63;4926823;29;20051;-90
2022/05/11 12:17:35;;;;;;;5.20;1.83;;;;;;;25.84;33.60;100901.91;4929351;29;20031;-90
2022/05/11 12:20:14;;;;;;;8.98;1.90;;;;;;;25.91;33.69;100908.09;4911123;29;20039;-91
2022/05/11 12:22:44;;;;;;;7.55;1.92;;;;;;;25.92;34.29;100905.19;4912378;29;20107;-90
2022/05/11 12:25:21;;;;;;;8.60;2.25;;;;;;;25.93;34.41;100908.72;4913529;29;20028;-91